Hlavní strana
METAR-TAF:

METAR-TAF

Letiště :

Parsons, Tennessee, Spojené státy americké

zeměpisná šířka: 35-39-23N, zeměpisná délka: 088-11-43W, výška: 149 m

Aktuální stav počasí

Zpráva byla vytvořena před 29 minutami, v 02:15 UTC
Severoseverovýchodní vítr 4 kt
Teplota 0°C
Vlhkost vzduchu 86%
Tlak 1030 hPa
Viditelnost: 16.1 km
Zataženo ve výšce 1500 ft

METAR: KPVE 140215Z AUTO 03004KT 10SM OVC015 00/M02 A3041 RMK A01

Čas: 20:44 (02:44 UTC)


TAF: chybějící

Stav a předpovědi počasí z více než 4 000 letišť (zprávy METAR a TAF).

Červené a žluté tečky na mapě představují dostupné meteorologické stanice.

Když kurzor umístíte na tečku, zobrazí se název stanice.

Pak kliknutím zobrazíte stav a předpověď počasí.

Chcete-li změnit mapu, kliknutím na zelené tlačítko se znaménkem +mapu přiblížíte, kliknutím na zelené tlačítko se znaménkem – mapu oddálíte a kliknutím na zelené šipky přejdete na sousední mapy.


METAR-TAF: